sensor_id;sensor_type;location;lat;lon;timestamp;P1;durP1;ratioP1;P2;durP2;ratioP2
41167;SDS011;26906;45.658;9.272;2023-06-19T05:36:17;7.63;;;6.82;;
41167;SDS011;26906;45.658;9.272;2023-06-19T05:38:43;9.20;;;7.35;;
41167;SDS011;26906;45.658;9.272;2023-06-19T05:41:08;7.13;;;6.40;;
41167;SDS011;26906;45.658;9.272;2023-06-19T05:43:34;10.77;;;6.25;;
41167;SDS011;26906;45.658;9.272;2023-06-19T05:46:00;15.88;;;6.78;;
41167;SDS011;26906;45.658;9.272;2023-06-19T05:48:27;10.00;;;6.90;;
41167;SDS011;26906;45.658;9.272;2023-06-19T05:50:53;9.75;;;6.25;;
41167;SDS011;26906;45.658;9.272;2023-06-19T05:53:18;10.05;;;6.70;;
41167;SDS011;26906;45.658;9.272;2023-06-19T05:55:45;8.55;;;6.78;;
41167;SDS011;26906;45.658;9.272;2023-06-19T05:58:12;9.57;;;6.43;;
41167;SDS011;26906;45.658;9.272;2023-06-19T06:00:37;8.63;;;6.93;;
41167;SDS011;26906;45.658;9.272;2023-06-19T06:03:03;16.52;;;8.68;;
41167;SDS011;26906;45.658;9.272;2023-06-19T06:05:29;11.82;;;7.68;;
41167;SDS011;26906;45.658;9.272;2023-06-19T06:07:54;9.35;;;7.90;;
41167;SDS011;26906;45.658;9.272;2023-06-19T06:10:21;10.27;;;8.30;;
41167;SDS011;26906;45.658;9.272;2023-06-19T06:12:48;12.30;;;7.43;;
41167;SDS011;26906;45.658;9.272;2023-06-19T06:15:14;12.18;;;7.65;;
41167;SDS011;26906;45.658;9.272;2023-06-19T06:17:41;11.30;;;7.72;;
41167;SDS011;26906;45.658;9.272;2023-06-19T06:20:07;13.75;;;7.72;;
41167;SDS011;26906;45.658;9.272;2023-06-19T06:22:36;12.63;;;7.88;;
41167;SDS011;26906;45.658;9.272;2023-06-19T06:25:02;9.98;;;7.40;;
41167;SDS011;26906;45.658;9.272;2023-06-19T06:27:29;8.77;;;7.63;;
41167;SDS011;26906;45.658;9.272;2023-06-19T06:29:55;7.82;;;7.03;;
41167;SDS011;26906;45.658;9.272;2023-06-19T06:32:21;9.55;;;7.22;;
41167;SDS011;26906;45.658;9.272;2023-06-19T06:34:46;8.45;;;6.75;;
41167;SDS011;26906;45.658;9.272;2023-06-19T06:37:12;9.50;;;6.75;;
41167;SDS011;26906;45.658;9.272;2023-06-19T06:39:38;8.07;;;6.50;;
41167;SDS011;26906;45.658;9.272;2023-06-19T06:42:04;9.20;;;6.38;;
41167;SDS011;26906;45.658;9.272;2023-06-19T06:44:29;9.13;;;7.13;;
41167;SDS011;26906;45.658;9.272;2023-06-19T06:46:55;7.40;;;6.70;;
41167;SDS011;26906;45.658;9.272;2023-06-19T06:49:21;8.55;;;6.43;;
41167;SDS011;26906;45.658;9.272;2023-06-19T06:51:47;10.52;;;6.95;;
41167;SDS011;26906;45.658;9.272;2023-06-19T06:54:13;11.63;;;6.25;;
41167;SDS011;26906;45.658;9.272;2023-06-19T06:56:38;7.68;;;6.65;;
41167;SDS011;26906;45.658;9.272;2023-06-19T06:59:04;6.57;;;5.97;;
41167;SDS011;26906;45.658;9.272;2023-06-19T07:01:30;6.97;;;5.63;;
41167;SDS011;26906;45.658;9.272;2023-06-19T07:03:56;7.80;;;6.70;;
41167;SDS011;26906;45.658;9.272;2023-06-19T07:06:21;9.48;;;6.03;;
41167;SDS011;26906;45.658;9.272;2023-06-19T07:08:47;11.52;;;6.25;;
41167;SDS011;26906;45.658;9.272;2023-06-19T07:11:13;14.02;;;6.30;;
41167;SDS011;26906;45.658;9.272;2023-06-19T07:13:39;8.07;;;6.20;;
41167;SDS011;26906;45.658;9.272;2023-06-19T07:16:06;6.25;;;5.50;;
41167;SDS011;26906;45.658;9.272;2023-06-19T07:18:32;13.70;;;6.22;;
41167;SDS011;26906;45.658;9.272;2023-06-19T07:21:00;7.68;;;6.28;;
41167;SDS011;26906;45.658;9.272;2023-06-19T07:23:26;7.70;;;6.70;;
41167;SDS011;26906;45.658;9.272;2023-06-19T07:25:52;8.13;;;6.40;;
41167;SDS011;26906;45.658;9.272;2023-06-19T07:28:18;9.77;;;6.53;;
41167;SDS011;26906;45.658;9.272;2023-06-19T07:30:43;6.53;;;5.82;;
41167;SDS011;26906;45.658;9.272;2023-06-19T07:33:10;7.22;;;6.45;;
41167;SDS011;26906;45.658;9.272;2023-06-19T07:35:35;8.18;;;6.13;;
41167;SDS011;26906;45.658;9.272;2023-06-19T07:38:01;6.38;;;5.72;;
41167;SDS011;26906;45.658;9.272;2023-06-19T07:40:27;6.78;;;5.43;;
41167;SDS011;26906;45.658;9.272;2023-06-19T07:42:52;11.02;;;6.53;;
41167;SDS011;26906;45.658;9.272;2023-06-19T07:45:18;8.35;;;6.50;;
41167;SDS011;26906;45.658;9.272;2023-06-19T07:47:44;7.15;;;6.05;;
41167;SDS011;26906;45.658;9.272;2023-06-19T07:50:18;8.60;;;6.40;;
41167;SDS011;26906;45.658;9.272;2023-06-19T07:52:44;6.65;;;5.95;;
41167;SDS011;26906;45.658;9.272;2023-06-19T07:55:09;6.85;;;5.70;;
41167;SDS011;26906;45.658;9.272;2023-06-19T08:02:59;8.02;;;5.95;;
41167;SDS011;26906;45.658;9.272;2023-06-19T08:05:25;8.18;;;5.78;;
41167;SDS011;26906;45.658;9.272;2023-06-19T08:07:50;5.47;;;4.80;;
41167;SDS011;26906;45.658;9.272;2023-06-19T08:10:16;7.03;;;4.93;;
41167;SDS011;26906;45.658;9.272;2023-06-19T08:12:42;7.63;;;5.57;;
41167;SDS011;26906;45.658;9.272;2023-06-19T08:15:09;6.25;;;5.22;;
41167;SDS011;26906;45.658;9.272;2023-06-19T08:17:41;7.45;;;5.13;;
41167;SDS011;26906;45.658;9.272;2023-06-19T08:20:07;6.60;;;4.68;;
41167;SDS011;26906;45.658;9.272;2023-06-19T08:22:35;6.47;;;5.88;;
41167;SDS011;26906;45.658;9.272;2023-06-19T08:25:01;6.07;;;4.90;;
41167;SDS011;26906;45.658;9.272;2023-06-19T08:27:27;5.18;;;4.60;;
41167;SDS011;26906;45.658;9.272;2023-06-19T08:29:53;6.88;;;5.78;;
41167;SDS011;26906;45.658;9.272;2023-06-19T08:32:19;6.03;;;4.95;;
41167;SDS011;26906;45.658;9.272;2023-06-19T08:34:44;7.55;;;5.20;;
41167;SDS011;26906;45.658;9.272;2023-06-19T08:37:10;7.72;;;5.40;;
41167;SDS011;26906;45.658;9.272;2023-06-19T08:39:36;6.22;;;5.28;;
41167;SDS011;26906;45.658;9.272;2023-06-19T08:42:08;5.85;;;4.65;;
41167;SDS011;26906;45.658;9.272;2023-06-19T08:44:34;8.02;;;6.38;;
41167;SDS011;26906;45.658;9.272;2023-06-19T08:47:04;10.55;;;6.18;;
41167;SDS011;26906;45.658;9.272;2023-06-19T08:49:30;7.93;;;6.70;;
41167;SDS011;26906;45.658;9.272;2023-06-19T08:52:03;8.32;;;5.50;;
41167;SDS011;26906;45.658;9.272;2023-06-19T08:54:29;9.32;;;5.63;;
41167;SDS011;26906;45.658;9.272;2023-06-19T08:56:55;6.93;;;5.65;;
41167;SDS011;26906;45.658;9.272;2023-06-19T08:59:21;8.13;;;6.25;;
41167;SDS011;26906;45.658;9.272;2023-06-19T09:01:48;6.28;;;5.68;;
41167;SDS011;26906;45.658;9.272;2023-06-19T09:04:23;7.35;;;5.28;;
41167;SDS011;26906;45.658;9.272;2023-06-19T09:06:54;8.48;;;6.53;;
41167;SDS011;26906;45.658;9.272;2023-06-19T09:09:22;7.28;;;6.57;;
41167;SDS011;26906;45.658;9.272;2023-06-19T09:12:06;8.85;;;6.20;;
41167;SDS011;26906;45.658;9.272;2023-06-19T09:14:38;9.10;;;6.53;;
41167;SDS011;26906;45.658;9.272;2023-06-19T09:17:12;14.77;;;6.00;;
41167;SDS011;26906;45.658;9.272;2023-06-19T09:19:49;7.40;;;5.82;;
41167;SDS011;26906;45.658;9.272;2023-06-19T09:22:16;7.57;;;6.72;;
41167;SDS011;26906;45.658;9.272;2023-06-19T09:24:46;9.20;;;7.45;;
41167;SDS011;26906;45.658;9.272;2023-06-19T09:27:13;10.32;;;7.47;;
41167;SDS011;26906;45.658;9.272;2023-06-19T09:29:46;6.75;;;6.00;;
41167;SDS011;26906;45.658;9.272;2023-06-19T09:32:21;8.77;;;7.75;;
41167;SDS011;26906;45.658;9.272;2023-06-19T09:34:53;7.75;;;6.78;;
41167;SDS011;26906;45.658;9.272;2023-06-19T09:37:23;9.98;;;6.40;;
41167;SDS011;26906;45.658;9.272;2023-06-19T09:39:52;7.82;;;6.40;;
41167;SDS011;26906;45.658;9.272;2023-06-19T09:42:20;13.05;;;6.63;;
41167;SDS011;26906;45.658;9.272;2023-06-19T09:44:55;9.82;;;6.70;;
41167;SDS011;26906;45.658;9.272;2023-06-19T09:47:27;8.50;;;7.40;;
41167;SDS011;26906;45.658;9.272;2023-06-19T09:50:07;12.88;;;11.40;;
41167;SDS011;26906;45.658;9.272;2023-06-19T09:52:33;12.13;;;10.50;;
41167;SDS011;26906;45.658;9.272;2023-06-19T09:55:06;16.17;;;8.43;;
41167;SDS011;26906;45.658;9.272;2023-06-19T09:57:33;9.93;;;8.07;;
41167;SDS011;26906;45.658;9.272;2023-06-19T10:00:01;9.15;;;7.55;;
41167;SDS011;26906;45.658;9.272;2023-06-19T10:02:39;10.05;;;7.80;;
41167;SDS011;26906;45.658;9.272;2023-06-19T10:05:06;16.48;;;9.57;;
41167;SDS011;26906;45.658;9.272;2023-06-19T10:07:37;11.35;;;8.35;;
41167;SDS011;26906;45.658;9.272;2023-06-19T10:12:40;11.88;;;7.47;;
41167;SDS011;26906;45.658;9.272;2023-06-19T10:17:47;8.93;;;8.00;;
41167;SDS011;26906;45.658;9.272;2023-06-19T10:20:21;8.27;;;7.18;;
41167;SDS011;26906;45.658;9.272;2023-06-19T10:25:29;8.70;;;7.25;;
41167;SDS011;26906;45.658;9.272;2023-06-19T10:27:59;7.95;;;7.10;;
41167;SDS011;26906;45.658;9.272;2023-06-19T10:30:25;7.85;;;6.85;;
41167;SDS011;26906;45.658;9.272;2023-06-19T10:32:51;9.65;;;8.45;;
41167;SDS011;26906;45.658;9.272;2023-06-19T10:35:18;9.98;;;8.35;;
41167;SDS011;26906;45.658;9.272;2023-06-19T10:37:47;8.30;;;7.43;;
41167;SDS011;26906;45.658;9.272;2023-06-19T10:40:14;6.88;;;5.70;;
41167;SDS011;26906;45.658;9.272;2023-06-19T10:42:40;6.50;;;5.90;;
41167;SDS011;26906;45.658;9.272;2023-06-19T10:45:06;9.02;;;6.75;;
41167;SDS011;26906;45.658;9.272;2023-06-19T10:47:34;10.63;;;7.03;;
41167;SDS011;26906;45.658;9.272;2023-06-19T10:50:00;7.75;;;6.55;;
41167;SDS011;26906;45.658;9.272;2023-06-19T10:52:28;9.57;;;7.50;;
41167;SDS011;26906;45.658;9.272;2023-06-19T10:54:55;10.80;;;7.50;;
41167;SDS011;26906;45.658;9.272;2023-06-19T10:57:30;7.90;;;6.90;;
41167;SDS011;26906;45.658;9.272;2023-06-19T10:59:56;9.77;;;6.93;;
41167;SDS011;26906;45.658;9.272;2023-06-19T11:02:23;9.05;;;7.55;;
41167;SDS011;26906;45.658;9.272;2023-06-19T11:04:53;10.65;;;8.35;;
41167;SDS011;26906;45.658;9.272;2023-06-19T11:07:20;10.60;;;8.60;;
41167;SDS011;26906;45.658;9.272;2023-06-19T11:09:47;10.88;;;8.00;;
41167;SDS011;26906;45.658;9.272;2023-06-19T11:12:20;10.95;;;8.45;;
41167;SDS011;26906;45.658;9.272;2023-06-19T11:14:49;10.23;;;9.23;;
41167;SDS011;26906;45.658;9.272;2023-06-19T11:17:15;9.57;;;8.65;;
41167;SDS011;26906;45.658;9.272;2023-06-19T11:19:43;10.95;;;9.13;;
41167;SDS011;26906;45.658;9.272;2023-06-19T11:22:09;10.80;;;9.70;;
41167;SDS011;26906;45.658;9.272;2023-06-19T11:24:36;10.82;;;9.70;;
41167;SDS011;26906;45.658;9.272;2023-06-19T11:27:02;10.65;;;9.00;;
41167;SDS011;26906;45.658;9.272;2023-06-19T11:29:31;13.27;;;10.63;;
41167;SDS011;26906;45.658;9.272;2023-06-19T11:35:03;9.32;;;8.30;;
41167;SDS011;26906;45.658;9.272;2023-06-19T11:37:32;11.77;;;8.20;;
41167;SDS011;26906;45.658;9.272;2023-06-19T11:39:58;13.43;;;7.43;;
41167;SDS011;26906;45.658;9.272;2023-06-19T11:42:25;11.00;;;8.43;;
41167;SDS011;26906;45.658;9.272;2023-06-19T11:45:01;11.45;;;6.88;;
41167;SDS011;26906;45.658;9.272;2023-06-19T11:47:32;8.40;;;6.60;;
41167;SDS011;26906;45.658;9.272;2023-06-19T11:49:58;7.20;;;6.53;;
41167;SDS011;26906;45.658;9.272;2023-06-19T11:52:25;10.15;;;5.80;;
41167;SDS011;26906;45.658;9.272;2023-06-19T11:54:51;7.35;;;6.75;;
41167;SDS011;26906;45.658;9.272;2023-06-19T11:57:17;8.57;;;7.78;;
41167;SDS011;26906;45.658;9.272;2023-06-19T11:59:43;8.45;;;7.43;;
41167;SDS011;26906;45.658;9.272;2023-06-19T12:02:08;7.55;;;6.47;;
41167;SDS011;26906;45.658;9.272;2023-06-19T12:04:34;11.95;;;7.38;;
41167;SDS011;26906;45.658;9.272;2023-06-19T12:07:01;10.18;;;6.40;;
41167;SDS011;26906;45.658;9.272;2023-06-19T12:09:29;7.57;;;6.10;;
41167;SDS011;26906;45.658;9.272;2023-06-19T12:11:57;7.80;;;6.35;;
41167;SDS011;26906;45.658;9.272;2023-06-19T12:14:24;11.70;;;7.00;;
41167;SDS011;26906;45.658;9.272;2023-06-19T12:16:51;8.48;;;6.43;;
41167;SDS011;26906;45.658;9.272;2023-06-19T12:19:17;8.73;;;6.35;;
41167;SDS011;26906;45.658;9.272;2023-06-19T12:21:43;9.80;;;6.72;;
41167;SDS011;26906;45.658;9.272;2023-06-19T12:24:09;6.75;;;6.00;;
41167;SDS011;26906;45.658;9.272;2023-06-19T12:26:35;9.02;;;6.57;;
41167;SDS011;26906;45.658;9.272;2023-06-19T12:29:05;6.88;;;6.20;;
41167;SDS011;26906;45.658;9.272;2023-06-19T12:31:32;8.55;;;6.80;;
41167;SDS011;26906;45.658;9.272;2023-06-19T12:33:59;7.55;;;6.82;;
41167;SDS011;26906;45.658;9.272;2023-06-19T12:36:26;6.63;;;6.03;;
41167;SDS011;26906;45.658;9.272;2023-06-19T12:38:52;8.75;;;6.70;;
41167;SDS011;26906;45.658;9.272;2023-06-19T12:41:21;9.05;;;7.00;;
41167;SDS011;26906;45.658;9.272;2023-06-19T12:43:48;7.57;;;6.88;;
41167;SDS011;26906;45.658;9.272;2023-06-19T12:46:14;9.02;;;5.90;;
41167;SDS011;26906;45.658;9.272;2023-06-19T12:48:43;6.82;;;6.05;;
41167;SDS011;26906;45.658;9.272;2023-06-19T12:51:08;7.50;;;6.03;;
41167;SDS011;26906;45.658;9.272;2023-06-19T12:53:34;7.57;;;5.60;;
41167;SDS011;26906;45.658;9.272;2023-06-19T12:56:00;9.02;;;5.70;;
41167;SDS011;26906;45.658;9.272;2023-06-19T12:58:26;8.18;;;6.00;;
41167;SDS011;26906;45.658;9.272;2023-06-19T13:00:53;7.47;;;5.40;;
41167;SDS011;26906;45.658;9.272;2023-06-19T13:03:37;5.85;;;5.35;;
41167;SDS011;26906;45.658;9.272;2023-06-19T13:06:03;5.75;;;5.25;;
41167;SDS011;26906;45.658;9.272;2023-06-19T13:08:28;5.85;;;5.25;;
41167;SDS011;26906;45.658;9.272;2023-06-19T13:10:54;10.95;;;5.80;;
41167;SDS011;26906;45.658;9.272;2023-06-19T13:13:20;7.07;;;5.60;;
41167;SDS011;26906;45.658;9.272;2023-06-19T13:15:46;6.40;;;5.22;;
41167;SDS011;26906;45.658;9.272;2023-06-19T13:18:12;7.85;;;5.30;;
41167;SDS011;26906;45.658;9.272;2023-06-19T13:20:37;8.13;;;5.45;;
41167;SDS011;26906;45.658;9.272;2023-06-19T13:23:03;5.85;;;5.35;;
41167;SDS011;26906;45.658;9.272;2023-06-19T13:25:29;6.03;;;5.20;;
41167;SDS011;26906;45.658;9.272;2023-06-19T13:27:54;6.13;;;5.50;;
41167;SDS011;26906;45.658;9.272;2023-06-19T13:30:20;6.05;;;5.30;;
41167;SDS011;26906;45.658;9.272;2023-06-19T13:32:46;5.80;;;5.30;;
41167;SDS011;26906;45.658;9.272;2023-06-19T13:35:11;9.57;;;5.47;;
41167;SDS011;26906;45.658;9.272;2023-06-19T13:37:37;6.03;;;5.32;;
41167;SDS011;26906;45.658;9.272;2023-06-19T13:40:06;8.35;;;5.30;;
41167;SDS011;26906;45.658;9.272;2023-06-19T13:42:32;7.32;;;5.38;;
41167;SDS011;26906;45.658;9.272;2023-06-19T13:45:00;7.07;;;5.85;;
41167;SDS011;26906;45.658;9.272;2023-06-19T13:47:27;9.05;;;5.03;;
41167;SDS011;26906;45.658;9.272;2023-06-19T13:49:53;8.63;;;5.90;;
41167;SDS011;26906;45.658;9.272;2023-06-19T13:52:18;6.82;;;5.70;;
41167;SDS011;26906;45.658;9.272;2023-06-19T13:54:44;8.20;;;5.90;;
41167;SDS011;26906;45.658;9.272;2023-06-19T13:57:10;6.55;;;5.32;;
41167;SDS011;26906;45.658;9.272;2023-06-19T13:59:36;8.40;;;5.53;;
41167;SDS011;26906;45.658;9.272;2023-06-19T14:02:01;5.78;;;5.22;;
41167;SDS011;26906;45.658;9.272;2023-06-19T14:04:27;5.78;;;5.13;;
41167;SDS011;26906;45.658;9.272;2023-06-19T14:06:53;7.13;;;6.07;;
41167;SDS011;26906;45.658;9.272;2023-06-19T14:09:20;6.88;;;5.15;;
41167;SDS011;26906;45.658;9.272;2023-06-19T14:11:46;8.65;;;5.78;;
41167;SDS011;26906;45.658;9.272;2023-06-19T14:14:12;8.98;;;5.15;;
41167;SDS011;26906;45.658;9.272;2023-06-19T14:16:38;7.72;;;5.65;;
41167;SDS011;26906;45.658;9.272;2023-06-19T14:19:03;5.88;;;5.25;;
41167;SDS011;26906;45.658;9.272;2023-06-19T14:21:29;6.60;;;5.72;;
41167;SDS011;26906;45.658;9.272;2023-06-19T14:23:55;8.85;;;4.90;;
41167;SDS011;26906;45.658;9.272;2023-06-19T14:26:21;6.03;;;5.22;;
41167;SDS011;26906;45.658;9.272;2023-06-19T14:28:46;6.55;;;5.95;;
41167;SDS011;26906;45.658;9.272;2023-06-19T14:31:12;8.82;;;5.68;;
41167;SDS011;26906;45.658;9.272;2023-06-19T14:33:38;6.05;;;5.35;;
41167;SDS011;26906;45.658;9.272;2023-06-19T14:36:04;8.50;;;5.13;;
41167;SDS011;26906;45.658;9.272;2023-06-19T14:38:30;6.78;;;4.80;;
41167;SDS011;26906;45.658;9.272;2023-06-19T14:41:01;6.60;;;4.90;;
41167;SDS011;26906;45.658;9.272;2023-06-19T14:43:28;6.20;;;4.97;;
41167;SDS011;26906;45.658;9.272;2023-06-19T14:45:54;8.60;;;5.03;;
41167;SDS011;26906;45.658;9.272;2023-06-19T14:48:20;8.60;;;5.03;;
41167;SDS011;26906;45.658;9.272;2023-06-19T14:50:46;5.50;;;5.00;;
41167;SDS011;26906;45.658;9.272;2023-06-19T14:53:11;6.20;;;3.80;;
41167;SDS011;26906;45.658;9.272;2023-06-19T14:55:37;7.72;;;4.55;;
41167;SDS011;26906;45.658;9.272;2023-06-19T14:58:08;4.85;;;3.85;;
41167;SDS011;26906;45.658;9.272;2023-06-19T15:00:33;4.38;;;3.83;;
41167;SDS011;26906;45.658;9.272;2023-06-19T15:03:03;4.40;;;4.00;;
41167;SDS011;26906;45.658;9.272;2023-06-19T15:05:32;4.80;;;4.35;;
41167;SDS011;26906;45.658;9.272;2023-06-19T15:07:58;5.07;;;3.95;;
41167;SDS011;26906;45.658;9.272;2023-06-19T15:10:26;7.15;;;4.50;;
41167;SDS011;26906;45.658;9.272;2023-06-19T15:12:52;4.50;;;3.90;;
41167;SDS011;26906;45.658;9.272;2023-06-19T15:15:17;4.72;;;3.70;;
41167;SDS011;26906;45.658;9.272;2023-06-19T15:17:43;4.90;;;4.07;;
41167;SDS011;26906;45.658;9.272;2023-06-19T15:20:09;5.18;;;3.90;;
41167;SDS011;26906;45.658;9.272;2023-06-19T15:22:35;5.05;;;4.00;;
41167;SDS011;26906;45.658;9.272;2023-06-19T15:25:02;6.35;;;4.50;;
41167;SDS011;26906;45.658;9.272;2023-06-19T15:27:28;6.47;;;4.20;;
41167;SDS011;26906;45.658;9.272;2023-06-19T15:29:54;10.43;;;4.40;;
41167;SDS011;26906;45.658;9.272;2023-06-19T15:32:19;5.20;;;3.80;;
41167;SDS011;26906;45.658;9.272;2023-06-19T15:34:45;4.60;;;4.20;;
41167;SDS011;26906;45.658;9.272;2023-06-19T15:37:11;4.32;;;3.95;;
41167;SDS011;26906;45.658;9.272;2023-06-19T15:39:37;6.45;;;4.32;;
41167;SDS011;26906;45.658;9.272;2023-06-19T15:42:02;5.15;;;4.30;;
41167;SDS011;26906;45.658;9.272;2023-06-19T15:44:28;6.35;;;4.45;;
41167;SDS011;26906;45.658;9.272;2023-06-19T15:46:55;7.32;;;4.25;;
41167;SDS011;26906;45.658;9.272;2023-06-19T15:49:21;7.72;;;4.28;;
41167;SDS011;26906;45.658;9.272;2023-06-19T15:51:47;7.55;;;4.45;;
41167;SDS011;26906;45.658;9.272;2023-06-19T15:54:12;4.45;;;4.10;;
41167;SDS011;26906;45.658;9.272;2023-06-19T15:56:38;4.85;;;4.30;;
41167;SDS011;26906;45.658;9.272;2023-06-19T15:59:04;6.32;;;4.63;;
41167;SDS011;26906;45.658;9.272;2023-06-19T16:01:30;4.97;;;3.92;;
41167;SDS011;26906;45.658;9.272;2023-06-19T16:03:56;4.88;;;4.10;;
41167;SDS011;26906;45.658;9.272;2023-06-19T16:06:21;4.80;;;4.30;;
41167;SDS011;26906;45.658;9.272;2023-06-19T16:08:47;4.70;;;4.05;;
41167;SDS011;26906;45.658;9.272;2023-06-19T16:11:15;5.18;;;3.80;;
41167;SDS011;26906;45.658;9.272;2023-06-19T16:13:41;4.57;;;4.05;;
41167;SDS011;26906;45.658;9.272;2023-06-19T16:16:07;4.57;;;4.18;;
41167;SDS011;26906;45.658;9.272;2023-06-19T16:18:32;7.60;;;4.10;;
41167;SDS011;26906;45.658;9.272;2023-06-19T16:20:59;5.72;;;4.72;;
41167;SDS011;26906;45.658;9.272;2023-06-19T16:23:25;7.50;;;4.40;;
41167;SDS011;26906;45.658;9.272;2023-06-19T16:25:51;8.18;;;4.53;;
41167;SDS011;26906;45.658;9.272;2023-06-19T16:28:17;7.18;;;4.55;;
41167;SDS011;26906;45.658;9.272;2023-06-19T16:30:43;7.90;;;4.72;;
41167;SDS011;26906;45.658;9.272;2023-06-19T16:33:08;5.80;;;4.40;;
41167;SDS011;26906;45.658;9.272;2023-06-19T16:35:34;8.48;;;4.63;;
41167;SDS011;26906;45.658;9.272;2023-06-19T16:38:00;11.63;;;5.13;;
41167;SDS011;26906;45.658;9.272;2023-06-19T16:40:26;6.43;;;4.03;;
41167;SDS011;26906;45.658;9.272;2023-06-19T16:42:52;4.68;;;4.20;;
41167;SDS011;26906;45.658;9.272;2023-06-19T16:45:17;6.30;;;5.10;;
41167;SDS011;26906;45.658;9.272;2023-06-19T16:47:44;5.97;;;4.68;;
41167;SDS011;26906;45.658;9.272;2023-06-19T16:50:10;6.55;;;4.63;;
41167;SDS011;26906;45.658;9.272;2023-06-19T16:52:35;6.40;;;4.55;;
41167;SDS011;26906;45.658;9.272;2023-06-19T16:55:01;5.35;;;4.85;;
41167;SDS011;26906;45.658;9.272;2023-06-19T16:57:27;7.18;;;4.47;;
41167;SDS011;26906;45.658;9.272;2023-06-19T16:59:57;5.65;;;4.20;;
41167;SDS011;26906;45.658;9.272;2023-06-19T17:02:24;4.97;;;4.30;;
41167;SDS011;26906;45.658;9.272;2023-06-19T17:04:49;5.50;;;4.13;;
41167;SDS011;26906;45.658;9.272;2023-06-19T17:07:34;6.55;;;4.15;;
41167;SDS011;26906;45.658;9.272;2023-06-19T17:10:03;8.27;;;4.05;;
41167;SDS011;26906;45.658;9.272;2023-06-19T17:12:29;6.43;;;5.03;;
41167;SDS011;26906;45.658;9.272;2023-06-19T17:14:58;5.00;;;4.50;;
41167;SDS011;26906;45.658;9.272;2023-06-19T17:17:27;5.30;;;4.50;;
41167;SDS011;26906;45.658;9.272;2023-06-19T17:19:52;5.50;;;5.00;;
41167;SDS011;26906;45.658;9.272;2023-06-19T17:22:18;7.93;;;4.63;;
41167;SDS011;26906;45.658;9.272;2023-06-19T17:24:44;5.00;;;4.50;;
41167;SDS011;26906;45.658;9.272;2023-06-19T17:27:10;6.55;;;4.90;;
41167;SDS011;26906;45.658;9.272;2023-06-19T17:29:36;7.13;;;4.50;;
41167;SDS011;26906;45.658;9.272;2023-06-19T17:32:01;7.82;;;4.95;;
41167;SDS011;26906;45.658;9.272;2023-06-19T17:34:27;5.53;;;4.72;;
41167;SDS011;26906;45.658;9.272;2023-06-19T17:36:53;6.32;;;4.32;;
41167;SDS011;26906;45.658;9.272;2023-06-19T17:39:19;6.28;;;4.47;;
41167;SDS011;26906;45.658;9.272;2023-06-19T17:41:44;6.07;;;5.18;;
41167;SDS011;26906;45.658;9.272;2023-06-19T17:44:10;6.38;;;5.47;;
41167;SDS011;26906;45.658;9.272;2023-06-19T17:46:36;8.05;;;5.60;;
41167;SDS011;26906;45.658;9.272;2023-06-19T17:49:03;5.88;;;5.20;;
41167;SDS011;26906;45.658;9.272;2023-06-19T17:51:30;5.50;;;4.90;;
41167;SDS011;26906;45.658;9.272;2023-06-19T17:53:56;6.90;;;5.07;;
41167;SDS011;26906;45.658;9.272;2023-06-19T17:56:22;8.27;;;5.70;;
41167;SDS011;26906;45.658;9.272;2023-06-19T17:58:48;7.47;;;5.10;;
41167;SDS011;26906;45.658;9.272;2023-06-19T18:01:14;7.78;;;5.40;;
41167;SDS011;26906;45.658;9.272;2023-06-19T18:03:40;7.75;;;5.13;;
41167;SDS011;26906;45.658;9.272;2023-06-19T18:06:06;8.75;;;5.00;;
41167;SDS011;26906;45.658;9.272;2023-06-19T18:08:31;6.85;;;5.60;;
41167;SDS011;26906;45.658;9.272;2023-06-19T18:11:00;6.00;;;5.32;;
41167;SDS011;26906;45.658;9.272;2023-06-19T18:13:27;5.70;;;5.10;;
41167;SDS011;26906;45.658;9.272;2023-06-19T18:15:53;8.50;;;5.05;;
41167;SDS011;26906;45.658;9.272;2023-06-19T18:18:18;8.15;;;5.50;;
41167;SDS011;26906;45.658;9.272;2023-06-19T18:20:44;8.13;;;5.72;;
41167;SDS011;26906;45.658;9.272;2023-06-19T18:23:10;7.80;;;5.68;;
41167;SDS011;26906;45.658;9.272;2023-06-19T18:25:35;7.10;;;5.57;;
41167;SDS011;26906;45.658;9.272;2023-06-19T18:28:01;9.15;;;6.07;;
41167;SDS011;26906;45.658;9.272;2023-06-19T18:30:27;6.32;;;5.60;;
41167;SDS011;26906;45.658;9.272;2023-06-19T18:32:52;7.88;;;5.47;;
41167;SDS011;26906;45.658;9.272;2023-06-19T18:35:18;6.90;;;5.43;;
41167;SDS011;26906;45.658;9.272;2023-06-19T18:37:44;6.43;;;5.47;;
41167;SDS011;26906;45.658;9.272;2023-06-19T18:40:09;6.35;;;5.28;;
41167;SDS011;26906;45.658;9.272;2023-06-19T18:42:35;6.70;;;5.70;;
41167;SDS011;26906;45.658;9.272;2023-06-19T18:45:01;7.07;;;6.00;;
41167;SDS011;26906;45.658;9.272;2023-06-19T18:47:27;7.32;;;5.68;;
41167;SDS011;26906;45.658;9.272;2023-06-19T18:49:53;7.35;;;6.60;;
41167;SDS011;26906;45.658;9.272;2023-06-19T18:52:18;8.13;;;6.00;;
41167;SDS011;26906;45.658;9.272;2023-06-19T18:54:44;10.35;;;5.53;;
41167;SDS011;26906;45.658;9.272;2023-06-19T18:57:09;5.85;;;5.25;;
41167;SDS011;26906;45.658;9.272;2023-06-19T18:59:35;7.78;;;6.28;;
41167;SDS011;26906;45.658;9.272;2023-06-19T19:02:02;7.03;;;6.07;;
41167;SDS011;26906;45.658;9.272;2023-06-19T19:04:32;7.90;;;5.38;;
41167;SDS011;26906;45.658;9.272;2023-06-19T19:06:59;7.25;;;5.65;;
41167;SDS011;26906;45.658;9.272;2023-06-19T19:09:25;6.53;;;5.90;;
41167;SDS011;26906;45.658;9.272;2023-06-19T19:11:50;6.85;;;6.05;;
41167;SDS011;26906;45.658;9.272;2023-06-19T19:14:18;6.22;;;5.57;;
41167;SDS011;26906;45.658;9.272;2023-06-19T19:16:44;7.35;;;5.75;;
41167;SDS011;26906;45.658;9.272;2023-06-19T19:19:09;7.78;;;6.53;;
41167;SDS011;26906;45.658;9.272;2023-06-19T19:21:35;8.55;;;6.53;;
41167;SDS011;26906;45.658;9.272;2023-06-19T19:24:01;7.47;;;6.43;;
41167;SDS011;26906;45.658;9.272;2023-06-19T19:26:27;7.22;;;6.47;;
41167;SDS011;26906;45.658;9.272;2023-06-19T19:28:52;7.25;;;6.40;;
41167;SDS011;26906;45.658;9.272;2023-06-19T19:31:18;7.75;;;6.25;;
41167;SDS011;26906;45.658;9.272;2023-06-19T19:33:44;7.78;;;6.47;;
41167;SDS011;26906;45.658;9.272;2023-06-19T19:36:09;6.95;;;6.30;;
41167;SDS011;26906;45.658;9.272;2023-06-19T19:38:35;7.05;;;6.45;;
41167;SDS011;26906;45.658;9.272;2023-06-19T19:41:01;7.07;;;6.47;;
41167;SDS011;26906;45.658;9.272;2023-06-19T19:43:26;10.75;;;7.03;;
41167;SDS011;26906;45.658;9.272;2023-06-19T19:45:53;7.90;;;6.40;;
41167;SDS011;26906;45.658;9.272;2023-06-19T19:48:20;8.00;;;6.22;;
41167;SDS011;26906;45.658;9.272;2023-06-19T19:50:45;11.40;;;7.97;;
41167;SDS011;26906;45.658;9.272;2023-06-19T19:53:11;9.32;;;8.15;;
41167;SDS011;26906;45.658;9.272;2023-06-19T19:55:37;7.93;;;7.18;;
41167;SDS011;26906;45.658;9.272;2023-06-19T19:58:02;8.40;;;6.70;;
41167;SDS011;26906;45.658;9.272;2023-06-19T20:00:28;10.55;;;6.95;;
41167;SDS011;26906;45.658;9.272;2023-06-19T20:02:54;12.38;;;7.40;;
41167;SDS011;26906;45.658;9.272;2023-06-19T20:05:19;7.32;;;6.63;;
41167;SDS011;26906;45.658;9.272;2023-06-19T20:07:47;7.55;;;6.80;;
